sensor_id;sensor_type;location;lat;lon;timestamp;temperature;humidity
8541;DHT22;4308;51.294;6.590;2023-12-20T00:02:07;7.90;99.90
8541;DHT22;4308;51.294;6.590;2023-12-20T00:04:35;7.90;99.90
8541;DHT22;4308;51.294;6.590;2023-12-20T00:07:02;7.90;99.90
8541;DHT22;4308;51.294;6.590;2023-12-20T00:09:30;7.80;99.90
8541;DHT22;4308;51.294;6.590;2023-12-20T00:11:57;7.80;99.90
8541;DHT22;4308;51.294;6.590;2023-12-20T00:14:24;7.90;99.90
8541;DHT22;4308;51.294;6.590;2023-12-20T00:16:52;7.90;99.90
8541;DHT22;4308;51.294;6.590;2023-12-20T00:19:19;7.90;99.90
8541;DHT22;4308;51.294;6.590;2023-12-20T00:21:46;7.70;99.90
8541;DHT22;4308;51.294;6.590;2023-12-20T00:24:14;7.80;99.90
8541;DHT22;4308;51.294;6.590;2023-12-20T00:26:41;7.70;99.90
8541;DHT22;4308;51.294;6.590;2023-12-20T00:29:08;7.60;99.90
8541;DHT22;4308;51.294;6.590;2023-12-20T00:31:35;7.60;99.90
8541;DHT22;4308;51.294;6.590;2023-12-20T00:34:03;7.70;99.90
8541;DHT22;4308;51.294;6.590;2023-12-20T00:36:30;7.60;99.90
8541;DHT22;4308;51.294;6.590;2023-12-20T00:38:58;7.70;99.90
8541;DHT22;4308;51.294;6.590;2023-12-20T00:41:25;7.80;99.90
8541;DHT22;4308;51.294;6.590;2023-12-20T00:43:52;7.80;99.90
8541;DHT22;4308;51.294;6.590;2023-12-20T00:46:19;7.90;99.90
8541;DHT22;4308;51.294;6.590;2023-12-20T00:48:47;8.00;99.90
8541;DHT22;4308;51.294;6.590;2023-12-20T00:51:14;7.90;99.90
8541;DHT22;4308;51.294;6.590;2023-12-20T00:53:42;8.00;99.90
8541;DHT22;4308;51.294;6.590;2023-12-20T00:56:09;8.00;99.90
8541;DHT22;4308;51.294;6.590;2023-12-20T00:58:36;8.00;99.90
8541;DHT22;4308;51.294;6.590;2023-12-20T01:01:03;7.90;99.90
8541;DHT22;4308;51.294;6.590;2023-12-20T01:03:31;7.90;99.90
8541;DHT22;4308;51.294;6.590;2023-12-20T01:05:59;7.80;99.90
8541;DHT22;4308;51.294;6.590;2023-12-20T01:08:26;7.80;99.90
8541;DHT22;4308;51.294;6.590;2023-12-20T01:10:53;7.70;99.90
8541;DHT22;4308;51.294;6.590;2023-12-20T01:13:21;7.80;99.90
8541;DHT22;4308;51.294;6.590;2023-12-20T01:15:51;7.80;99.90
8541;DHT22;4308;51.294;6.590;2023-12-20T01:18:18;7.80;99.90
8541;DHT22;4308;51.294;6.590;2023-12-20T01:20:46;7.90;99.90
8541;DHT22;4308;51.294;6.590;2023-12-20T01:23:13;7.80;99.90
8541;DHT22;4308;51.294;6.590;2023-12-20T01:25:40;7.80;99.90
8541;DHT22;4308;51.294;6.590;2023-12-20T01:28:08;7.60;99.90
8541;DHT22;4308;51.294;6.590;2023-12-20T01:30:35;7.50;99.90
8541;DHT22;4308;51.294;6.590;2023-12-20T01:33:03;7.40;99.90
8541;DHT22;4308;51.294;6.590;2023-12-20T01:35:30;7.20;99.90
8541;DHT22;4308;51.294;6.590;2023-12-20T01:37:58;7.00;99.90
8541;DHT22;4308;51.294;6.590;2023-12-20T01:40:25;6.90;99.90
8541;DHT22;4308;51.294;6.590;2023-12-20T01:43:06;6.90;99.90
8541;DHT22;4308;51.294;6.590;2023-12-20T01:45:34;6.90;99.90
8541;DHT22;4308;51.294;6.590;2023-12-20T01:48:02;6.90;99.90
8541;DHT22;4308;51.294;6.590;2023-12-20T01:50:31;6.70;99.90
8541;DHT22;4308;51.294;6.590;2023-12-20T01:53:01;6.70;99.90
8541;DHT22;4308;51.294;6.590;2023-12-20T01:55:32;6.50;99.90
8541;DHT22;4308;51.294;6.590;2023-12-20T01:58:00;6.50;99.90
8541;DHT22;4308;51.294;6.590;2023-12-20T02:00:29;6.40;99.90
8541;DHT22;4308;51.294;6.590;2023-12-20T02:03:00;6.20;99.90
8541;DHT22;4308;51.294;6.590;2023-12-20T02:05:30;6.20;99.90
8541;DHT22;4308;51.294;6.590;2023-12-20T02:07:57;6.30;99.90
8541;DHT22;4308;51.294;6.590;2023-12-20T02:10:25;6.30;99.90
8541;DHT22;4308;51.294;6.590;2023-12-20T02:12:53;6.30;99.90
8541;DHT22;4308;51.294;6.590;2023-12-20T02:15:20;6.30;99.90
8541;DHT22;4308;51.294;6.590;2023-12-20T02:17:48;6.30;99.90
8541;DHT22;4308;51.294;6.590;2023-12-20T02:20:16;6.30;99.90
8541;DHT22;4308;51.294;6.590;2023-12-20T02:22:43;6.30;99.90
8541;DHT22;4308;51.294;6.590;2023-12-20T02:25:11;6.30;99.90
8541;DHT22;4308;51.294;6.590;2023-12-20T02:27:39;6.20;99.90
8541;DHT22;4308;51.294;6.590;2023-12-20T02:30:06;6.20;99.90
8541;DHT22;4308;51.294;6.590;2023-12-20T02:32:34;6.30;99.90
8541;DHT22;4308;51.294;6.590;2023-12-20T02:35:01;6.30;99.90
8541;DHT22;4308;51.294;6.590;2023-12-20T02:37:29;6.40;99.90
8541;DHT22;4308;51.294;6.590;2023-12-20T02:39:56;6.40;99.90
8541;DHT22;4308;51.294;6.590;2023-12-20T02:42:23;6.60;99.90
8541;DHT22;4308;51.294;6.590;2023-12-20T02:44:51;6.50;99.90
8541;DHT22;4308;51.294;6.590;2023-12-20T02:47:18;6.50;99.90
8541;DHT22;4308;51.294;6.590;2023-12-20T02:49:45;6.50;99.90
8541;DHT22;4308;51.294;6.590;2023-12-20T02:52:13;6.50;99.90
8541;DHT22;4308;51.294;6.590;2023-12-20T02:54:40;6.40;99.90
8541;DHT22;4308;51.294;6.590;2023-12-20T02:57:07;6.50;99.90
8541;DHT22;4308;51.294;6.590;2023-12-20T02:59:35;6.30;99.90
8541;DHT22;4308;51.294;6.590;2023-12-20T03:02:02;6.10;99.90
8541;DHT22;4308;51.294;6.590;2023-12-20T03:04:29;6.10;99.90
8541;DHT22;4308;51.294;6.590;2023-12-20T03:06:57;6.10;99.90
8541;DHT22;4308;51.294;6.590;2023-12-20T03:09:24;6.00;99.90
8541;DHT22;4308;51.294;6.590;2023-12-20T03:11:52;6.00;99.90
8541;DHT22;4308;51.294;6.590;2023-12-20T03:14:19;6.00;99.90
8541;DHT22;4308;51.294;6.590;2023-12-20T03:16:50;6.00;99.90
8541;DHT22;4308;51.294;6.590;2023-12-20T03:19:18;6.00;99.90
8541;DHT22;4308;51.294;6.590;2023-12-20T03:21:45;6.10;99.90
8541;DHT22;4308;51.294;6.590;2023-12-20T03:24:13;6.10;99.90
8541;DHT22;4308;51.294;6.590;2023-12-20T03:26:40;6.10;99.90
8541;DHT22;4308;51.294;6.590;2023-12-20T03:29:07;6.20;99.90
8541;DHT22;4308;51.294;6.590;2023-12-20T03:31:35;6.20;99.90
8541;DHT22;4308;51.294;6.590;2023-12-20T03:34:02;6.30;99.90
8541;DHT22;4308;51.294;6.590;2023-12-20T03:36:29;6.20;99.90
8541;DHT22;4308;51.294;6.590;2023-12-20T03:38:57;6.30;99.90
8541;DHT22;4308;51.294;6.590;2023-12-20T03:41:24;6.30;99.90
8541;DHT22;4308;51.294;6.590;2023-12-20T03:43:52;6.30;99.90
8541;DHT22;4308;51.294;6.590;2023-12-20T03:46:19;6.30;99.90
8541;DHT22;4308;51.294;6.590;2023-12-20T03:48:47;6.30;99.90
8541;DHT22;4308;51.294;6.590;2023-12-20T03:51:14;6.20;99.90
8541;DHT22;4308;51.294;6.590;2023-12-20T03:53:42;6.20;99.90
8541;DHT22;4308;51.294;6.590;2023-12-20T03:56:09;6.10;99.90
8541;DHT22;4308;51.294;6.590;2023-12-20T03:58:36;6.10;99.90
8541;DHT22;4308;51.294;6.590;2023-12-20T04:01:09;6.00;99.90
8541;DHT22;4308;51.294;6.590;2023-12-20T04:03:37;5.80;99.90
8541;DHT22;4308;51.294;6.590;2023-12-20T04:06:04;5.70;99.90
8541;DHT22;4308;51.294;6.590;2023-12-20T04:08:32;5.70;99.90
8541;DHT22;4308;51.294;6.590;2023-12-20T04:10:59;5.60;99.90
8541;DHT22;4308;51.294;6.590;2023-12-20T04:13:26;5.50;99.90
8541;DHT22;4308;51.294;6.590;2023-12-20T04:15:54;5.50;99.90
8541;DHT22;4308;51.294;6.590;2023-12-20T04:18:21;5.60;99.90
8541;DHT22;4308;51.294;6.590;2023-12-20T04:20:49;5.40;99.90
8541;DHT22;4308;51.294;6.590;2023-12-20T04:23:16;5.50;99.90
8541;DHT22;4308;51.294;6.590;2023-12-20T04:25:43;5.60;99.90
8541;DHT22;4308;51.294;6.590;2023-12-20T04:28:10;5.50;99.90
8541;DHT22;4308;51.294;6.590;2023-12-20T04:30:38;5.60;99.90
8541;DHT22;4308;51.294;6.590;2023-12-20T04:33:05;5.60;99.90
8541;DHT22;4308;51.294;6.590;2023-12-20T04:35:32;5.60;99.90
8541;DHT22;4308;51.294;6.590;2023-12-20T04:38:00;5.50;99.90
8541;DHT22;4308;51.294;6.590;2023-12-20T04:40:27;5.50;99.90
8541;DHT22;4308;51.294;6.590;2023-12-20T04:42:55;5.50;99.90
8541;DHT22;4308;51.294;6.590;2023-12-20T04:45:22;5.50;99.90
8541;DHT22;4308;51.294;6.590;2023-12-20T04:47:51;5.40;99.90
8541;DHT22;4308;51.294;6.590;2023-12-20T04:50:18;5.50;99.90
8541;DHT22;4308;51.294;6.590;2023-12-20T04:52:46;5.60;99.90
8541;DHT22;4308;51.294;6.590;2023-12-20T04:55:13;5.70;99.90
8541;DHT22;4308;51.294;6.590;2023-12-20T04:57:40;5.80;99.90
8541;DHT22;4308;51.294;6.590;2023-12-20T05:00:08;5.90;99.90
8541;DHT22;4308;51.294;6.590;2023-12-20T05:02:36;5.90;99.90
8541;DHT22;4308;51.294;6.590;2023-12-20T05:05:04;5.80;99.90
8541;DHT22;4308;51.294;6.590;2023-12-20T05:07:31;5.80;99.90
8541;DHT22;4308;51.294;6.590;2023-12-20T05:10:02;5.70;99.90
8541;DHT22;4308;51.294;6.590;2023-12-20T05:12:30;5.80;99.90
8541;DHT22;4308;51.294;6.590;2023-12-20T05:14:58;5.90;99.90
8541;DHT22;4308;51.294;6.590;2023-12-20T05:17:25;6.00;99.90
8541;DHT22;4308;51.294;6.590;2023-12-20T05:19:53;6.10;99.90
8541;DHT22;4308;51.294;6.590;2023-12-20T05:22:20;6.00;99.90
8541;DHT22;4308;51.294;6.590;2023-12-20T05:24:47;6.10;99.90
8541;DHT22;4308;51.294;6.590;2023-12-20T05:27:15;6.20;99.90
8541;DHT22;4308;51.294;6.590;2023-12-20T05:29:42;6.20;99.90
8541;DHT22;4308;51.294;6.590;2023-12-20T05:32:10;6.20;99.90
8541;DHT22;4308;51.294;6.590;2023-12-20T05:34:37;6.10;99.90
8541;DHT22;4308;51.294;6.590;2023-12-20T05:37:04;6.20;99.90
8541;DHT22;4308;51.294;6.590;2023-12-20T05:39:32;6.20;99.90
8541;DHT22;4308;51.294;6.590;2023-12-20T05:41:59;6.20;99.90
8541;DHT22;4308;51.294;6.590;2023-12-20T05:44:26;6.20;99.90
8541;DHT22;4308;51.294;6.590;2023-12-20T05:46:54;6.40;99.90
8541;DHT22;4308;51.294;6.590;2023-12-20T05:49:21;6.30;99.90
8541;DHT22;4308;51.294;6.590;2023-12-20T05:51:48;6.30;99.90
8541;DHT22;4308;51.294;6.590;2023-12-20T05:54:25;6.30;99.90
8541;DHT22;4308;51.294;6.590;2023-12-20T05:56:52;6.40;99.90
8541;DHT22;4308;51.294;6.590;2023-12-20T05:59:20;6.30;99.90
8541;DHT22;4308;51.294;6.590;2023-12-20T06:01:47;6.40;99.90
8541;DHT22;4308;51.294;6.590;2023-12-20T06:04:15;6.40;99.90
8541;DHT22;4308;51.294;6.590;2023-12-20T06:06:43;6.40;99.90
8541;DHT22;4308;51.294;6.590;2023-12-20T06:09:11;6.40;99.90
8541;DHT22;4308;51.294;6.590;2023-12-20T06:11:38;6.40;99.90
8541;DHT22;4308;51.294;6.590;2023-12-20T06:14:06;6.50;99.90
8541;DHT22;4308;51.294;6.590;2023-12-20T06:16:33;6.40;99.90
8541;DHT22;4308;51.294;6.590;2023-12-20T06:19:00;6.50;99.90
8541;DHT22;4308;51.294;6.590;2023-12-20T06:21:28;6.50;99.90
8541;DHT22;4308;51.294;6.590;2023-12-20T06:23:55;6.50;99.90
8541;DHT22;4308;51.294;6.590;2023-12-20T06:26:22;6.50;99.90
8541;DHT22;4308;51.294;6.590;2023-12-20T06:28:50;6.50;99.90
8541;DHT22;4308;51.294;6.590;2023-12-20T06:31:17;6.50;99.90
8541;DHT22;4308;51.294;6.590;2023-12-20T06:33:45;6.60;99.90
8541;DHT22;4308;51.294;6.590;2023-12-20T06:36:13;6.60;99.90
8541;DHT22;4308;51.294;6.590;2023-12-20T06:38:40;6.60;99.90
8541;DHT22;4308;51.294;6.590;2023-12-20T06:41:08;6.60;99.90
8541;DHT22;4308;51.294;6.590;2023-12-20T06:43:35;6.60;99.90
8541;DHT22;4308;51.294;6.590;2023-12-20T06:46:16;6.60;99.90
8541;DHT22;4308;51.294;6.590;2023-12-20T06:48:43;6.60;99.90
8541;DHT22;4308;51.294;6.590;2023-12-20T06:51:17;6.60;99.90
8541;DHT22;4308;51.294;6.590;2023-12-20T06:53:44;6.60;99.90
8541;DHT22;4308;51.294;6.590;2023-12-20T06:56:11;6.70;99.90
8541;DHT22;4308;51.294;6.590;2023-12-20T06:58:42;6.60;99.90
8541;DHT22;4308;51.294;6.590;2023-12-20T07:01:14;6.70;99.90
8541;DHT22;4308;51.294;6.590;2023-12-20T07:03:44;6.70;99.90
8541;DHT22;4308;51.294;6.590;2023-12-20T07:06:11;6.70;99.90
8541;DHT22;4308;51.294;6.590;2023-12-20T07:08:40;6.70;99.90
8541;DHT22;4308;51.294;6.590;2023-12-20T07:11:07;6.70;99.90
8541;DHT22;4308;51.294;6.590;2023-12-20T07:13:35;6.80;99.90
8541;DHT22;4308;51.294;6.590;2023-12-20T07:16:02;6.70;99.90
8541;DHT22;4308;51.294;6.590;2023-12-20T07:18:30;6.80;99.90
8541;DHT22;4308;51.294;6.590;2023-12-20T07:20:57;6.80;99.90
8541;DHT22;4308;51.294;6.590;2023-12-20T07:23:25;6.80;99.90
8541;DHT22;4308;51.294;6.590;2023-12-20T07:25:52;6.80;99.90
8541;DHT22;4308;51.294;6.590;2023-12-20T07:28:19;6.80;99.90
8541;DHT22;4308;51.294;6.590;2023-12-20T07:30:46;6.80;99.90
8541;DHT22;4308;51.294;6.590;2023-12-20T07:33:14;6.80;99.90
8541;DHT22;4308;51.294;6.590;2023-12-20T07:35:41;6.80;99.90
8541;DHT22;4308;51.294;6.590;2023-12-20T07:38:09;6.90;99.90
8541;DHT22;4308;51.294;6.590;2023-12-20T07:40:36;6.90;99.90
8541;DHT22;4308;51.294;6.590;2023-12-20T07:43:03;6.90;99.90
8541;DHT22;4308;51.294;6.590;2023-12-20T07:45:31;6.80;99.90
8541;DHT22;4308;51.294;6.590;2023-12-20T07:47:58;6.90;99.90
8541;DHT22;4308;51.294;6.590;2023-12-20T07:50:25;6.90;99.90
8541;DHT22;4308;51.294;6.590;2023-12-20T07:52:53;6.90;99.90
8541;DHT22;4308;51.294;6.590;2023-12-20T07:55:20;7.00;99.90
8541;DHT22;4308;51.294;6.590;2023-12-20T07:57:47;7.00;99.90
8541;DHT22;4308;51.294;6.590;2023-12-20T08:00:15;7.10;99.90
8541;DHT22;4308;51.294;6.590;2023-12-20T08:02:43;7.00;99.90
8541;DHT22;4308;51.294;6.590;2023-12-20T08:05:10;7.10;99.90
8541;DHT22;4308;51.294;6.590;2023-12-20T08:07:37;7.00;99.90
8541;DHT22;4308;51.294;6.590;2023-12-20T08:10:05;7.10;99.90
8541;DHT22;4308;51.294;6.590;2023-12-20T08:12:33;7.10;99.90
8541;DHT22;4308;51.294;6.590;2023-12-20T08:15:01;7.10;99.90
8541;DHT22;4308;51.294;6.590;2023-12-20T08:17:28;7.10;99.90
8541;DHT22;4308;51.294;6.590;2023-12-20T08:19:56;7.00;99.90
8541;DHT22;4308;51.294;6.590;2023-12-20T08:22:23;6.90;99.90
8541;DHT22;4308;51.294;6.590;2023-12-20T08:24:51;6.90;99.90
8541;DHT22;4308;51.294;6.590;2023-12-20T08:27:18;7.00;99.90
8541;DHT22;4308;51.294;6.590;2023-12-20T08:29:46;7.00;99.90
8541;DHT22;4308;51.294;6.590;2023-12-20T08:32:13;6.90;99.90
8541;DHT22;4308;51.294;6.590;2023-12-20T08:34:40;6.80;99.90
8541;DHT22;4308;51.294;6.590;2023-12-20T08:37:08;6.90;99.90
8541;DHT22;4308;51.294;6.590;2023-12-20T08:39:35;7.00;99.90
8541;DHT22;4308;51.294;6.590;2023-12-20T08:42:04;7.00;99.90
8541;DHT22;4308;51.294;6.590;2023-12-20T08:44:32;7.10;99.90
8541;DHT22;4308;51.294;6.590;2023-12-20T08:46:59;7.10;99.90
8541;DHT22;4308;51.294;6.590;2023-12-20T08:49:27;7.10;99.90
8541;DHT22;4308;51.294;6.590;2023-12-20T08:51:54;7.10;99.90
8541;DHT22;4308;51.294;6.590;2023-12-20T08:54:21;7.10;99.90
8541;DHT22;4308;51.294;6.590;2023-12-20T08:56:49;7.10;99.90
8541;DHT22;4308;51.294;6.590;2023-12-20T08:59:16;7.20;99.90
8541;DHT22;4308;51.294;6.590;2023-12-20T10:40:34;8.30;99.90
8541;DHT22;4308;51.294;6.590;2023-12-20T10:43:03;8.20;99.90
8541;DHT22;4308;51.294;6.590;2023-12-20T10:45:30;8.10;99.90
8541;DHT22;4308;51.294;6.590;2023-12-20T10:47:58;8.10;99.90
8541;DHT22;4308;51.294;6.590;2023-12-20T10:50:27;8.10;99.90
8541;DHT22;4308;51.294;6.590;2023-12-20T10:52:55;8.10;99.90
8541;DHT22;4308;51.294;6.590;2023-12-20T10:55:23;8.00;99.90
8541;DHT22;4308;51.294;6.590;2023-12-20T10:57:52;8.10;99.90
8541;DHT22;4308;51.294;6.590;2023-12-20T11:00:21;8.10;99.90
8541;DHT22;4308;51.294;6.590;2023-12-20T11:02:49;8.10;99.90
8541;DHT22;4308;51.294;6.590;2023-12-20T11:05:26;8.00;99.90
8541;DHT22;4308;51.294;6.590;2023-12-20T11:08:02;8.00;99.90
8541;DHT22;4308;51.294;6.590;2023-12-20T11:10:36;8.00;99.90
8541;DHT22;4308;51.294;6.590;2023-12-20T11:13:16;7.90;99.90
8541;DHT22;4308;51.294;6.590;2023-12-20T11:15:44;7.90;99.90
8541;DHT22;4308;51.294;6.590;2023-12-20T11:18:12;8.00;99.90
8541;DHT22;4308;51.294;6.590;2023-12-20T11:20:41;7.90;99.90
8541;DHT22;4308;51.294;6.590;2023-12-20T11:23:09;8.00;99.90
8541;DHT22;4308;51.294;6.590;2023-12-20T11:25:53;8.00;99.90
8541;DHT22;4308;51.294;6.590;2023-12-20T11:28:22;8.00;99.90
8541;DHT22;4308;51.294;6.590;2023-12-20T11:30:55;8.00;99.90
8541;DHT22;4308;51.294;6.590;2023-12-20T11:33:24;8.00;99.90
8541;DHT22;4308;51.294;6.590;2023-12-20T11:35:57;8.00;99.90
8541;DHT22;4308;51.294;6.590;2023-12-20T11:38:26;8.10;99.90
8541;DHT22;4308;51.294;6.590;2023-12-20T11:40:54;8.10;99.90
8541;DHT22;4308;51.294;6.590;2023-12-20T11:46:09;8.30;99.90
8541;DHT22;4308;51.294;6.590;2023-12-20T11:48:40;8.40;99.90
8541;DHT22;4308;51.294;6.590;2023-12-20T11:51:14;8.50;99.90
8541;DHT22;4308;51.294;6.590;2023-12-20T11:53:41;8.40;99.90
8541;DHT22;4308;51.294;6.590;2023-12-20T11:56:09;8.30;99.90
8541;DHT22;4308;51.294;6.590;2023-12-20T11:58:37;8.30;99.90
8541;DHT22;4308;51.294;6.590;2023-12-20T12:01:05;8.30;99.90
8541;DHT22;4308;51.294;6.590;2023-12-20T12:03:32;8.20;99.90
8541;DHT22;4308;51.294;6.590;2023-12-20T12:06:00;8.20;99.90
8541;DHT22;4308;51.294;6.590;2023-12-20T12:08:28;8.30;99.90
8541;DHT22;4308;51.294;6.590;2023-12-20T12:10:56;8.30;99.90
8541;DHT22;4308;51.294;6.590;2023-12-20T12:13:23;8.40;99.90
8541;DHT22;4308;51.294;6.590;2023-12-20T12:15:51;8.30;99.90
8541;DHT22;4308;51.294;6.590;2023-12-20T12:18:18;8.20;99.90
8541;DHT22;4308;51.294;6.590;2023-12-20T12:20:46;8.30;99.90
8541;DHT22;4308;51.294;6.590;2023-12-20T12:23:13;8.20;99.90
8541;DHT22;4308;51.294;6.590;2023-12-20T12:25:41;8.30;99.90
8541;DHT22;4308;51.294;6.590;2023-12-20T12:28:10;8.30;99.90
8541;DHT22;4308;51.294;6.590;2023-12-20T12:30:38;8.20;99.90
8541;DHT22;4308;51.294;6.590;2023-12-20T12:33:17;8.10;99.90
8541;DHT22;4308;51.294;6.590;2023-12-20T12:35:44;8.20;99.90
8541;DHT22;4308;51.294;6.590;2023-12-20T12:38:12;8.20;99.90
8541;DHT22;4308;51.294;6.590;2023-12-20T12:40:39;8.20;99.90
8541;DHT22;4308;51.294;6.590;2023-12-20T12:43:06;8.20;99.90
8541;DHT22;4308;51.294;6.590;2023-12-20T12:45:34;8.30;99.90
8541;DHT22;4308;51.294;6.590;2023-12-20T12:48:02;8.20;99.90
8541;DHT22;4308;51.294;6.590;2023-12-20T12:50:30;8.20;99.90
8541;DHT22;4308;51.294;6.590;2023-12-20T12:52:58;8.20;99.90
8541;DHT22;4308;51.294;6.590;2023-12-20T12:55:28;8.10;99.90
8541;DHT22;4308;51.294;6.590;2023-12-20T12:57:56;8.10;99.90
8541;DHT22;4308;51.294;6.590;2023-12-20T13:00:23;8.10;99.90
8541;DHT22;4308;51.294;6.590;2023-12-20T13:02:50;7.80;99.90
8541;DHT22;4308;51.294;6.590;2023-12-20T13:05:18;8.10;99.90
8541;DHT22;4308;51.294;6.590;2023-12-20T13:07:45;7.90;99.90
8541;DHT22;4308;51.294;6.590;2023-12-20T13:10:14;8.00;99.90
8541;DHT22;4308;51.294;6.590;2023-12-20T13:12:41;8.20;99.90
8541;DHT22;4308;51.294;6.590;2023-12-20T13:15:09;8.00;99.90
8541;DHT22;4308;51.294;6.590;2023-12-20T13:17:36;7.90;99.90
8541;DHT22;4308;51.294;6.590;2023-12-20T13:20:04;7.90;99.90
8541;DHT22;4308;51.294;6.590;2023-12-20T13:22:32;7.90;99.90
8541;DHT22;4308;51.294;6.590;2023-12-20T13:24:59;7.90;99.90
8541;DHT22;4308;51.294;6.590;2023-12-20T13:27:27;7.80;99.90
8541;DHT22;4308;51.294;6.590;2023-12-20T13:29:54;7.80;99.90
8541;DHT22;4308;51.294;6.590;2023-12-20T13:32:22;7.80;99.90
8541;DHT22;4308;51.294;6.590;2023-12-20T13:34:49;7.80;99.90
8541;DHT22;4308;51.294;6.590;2023-12-20T13:37:17;7.70;99.90
8541;DHT22;4308;51.294;6.590;2023-12-20T13:39:44;7.80;99.90
8541;DHT22;4308;51.294;6.590;2023-12-20T13:42:11;7.80;99.90
8541;DHT22;4308;51.294;6.590;2023-12-20T13:44:39;7.70;99.90
8541;DHT22;4308;51.294;6.590;2023-12-20T13:47:06;7.70;99.90
8541;DHT22;4308;51.294;6.590;2023-12-20T13:49:33;7.70;99.90
8541;DHT22;4308;51.294;6.590;2023-12-20T13:52:01;7.70;99.90
8541;DHT22;4308;51.294;6.590;2023-12-20T13:54:28;7.70;99.90
8541;DHT22;4308;51.294;6.590;2023-12-20T13:56:56;7.70;99.90
8541;DHT22;4308;51.294;6.590;2023-12-20T13:59:38;7.70;99.90
8541;DHT22;4308;51.294;6.590;2023-12-20T14:02:06;7.80;99.90
8541;DHT22;4308;51.294;6.590;2023-12-20T14:04:33;7.80;99.90
8541;DHT22;4308;51.294;6.590;2023-12-20T14:07:10;7.80;99.90
8541;DHT22;4308;51.294;6.590;2023-12-20T14:09:40;7.80;99.90
8541;DHT22;4308;51.294;6.590;2023-12-20T14:12:08;7.80;99.90
8541;DHT22;4308;51.294;6.590;2023-12-20T14:14:35;7.70;99.90
8541;DHT22;4308;51.294;6.590;2023-12-20T14:17:03;7.80;99.90
8541;DHT22;4308;51.294;6.590;2023-12-20T14:19:30;7.70;99.90
8541;DHT22;4308;51.294;6.590;2023-12-20T14:21:58;7.80;99.90
8541;DHT22;4308;51.294;6.590;2023-12-20T14:24:25;7.90;99.90
8541;DHT22;4308;51.294;6.590;2023-12-20T14:26:53;7.90;99.90
8541;DHT22;4308;51.294;6.590;2023-12-20T14:29:20;7.90;99.90
8541;DHT22;4308;51.294;6.590;2023-12-20T14:31:50;7.90;99.90
8541;DHT22;4308;51.294;6.590;2023-12-20T14:34:18;7.90;99.90
8541;DHT22;4308;51.294;6.590;2023-12-20T14:36:45;7.90;99.90
8541;DHT22;4308;51.294;6.590;2023-12-20T14:39:13;7.90;99.90
8541;DHT22;4308;51.294;6.590;2023-12-20T14:41:41;8.00;99.90
8541;DHT22;4308;51.294;6.590;2023-12-20T14:44:09;8.00;99.90
8541;DHT22;4308;51.294;6.590;2023-12-20T14:46:36;8.00;99.90
8541;DHT22;4308;51.294;6.590;2023-12-20T14:49:07;8.10;99.90
8541;DHT22;4308;51.294;6.590;2023-12-20T14:51:35;8.10;99.90
8541;DHT22;4308;51.294;6.590;2023-12-20T14:54:02;8.10;99.90
8541;DHT22;4308;51.294;6.590;2023-12-20T14:56:30;8.10;99.90
8541;DHT22;4308;51.294;6.590;2023-12-20T14:58:57;8.20;99.90
8541;DHT22;4308;51.294;6.590;2023-12-20T15:01:28;8.20;99.90
8541;DHT22;4308;51.294;6.590;2023-12-20T15:03:56;8.20;99.90
8541;DHT22;4308;51.294;6.590;2023-12-20T15:06:23;8.20;99.90
8541;DHT22;4308;51.294;6.590;2023-12-20T15:08:50;8.20;99.90
8541;DHT22;4308;51.294;6.590;2023-12-20T15:11:18;8.20;99.90
8541;DHT22;4308;51.294;6.590;2023-12-20T15:13:45;8.20;99.90
8541;DHT22;4308;51.294;6.590;2023-12-20T15:16:12;8.20;99.90
8541;DHT22;4308;51.294;6.590;2023-12-20T15:18:40;8.20;99.90
8541;DHT22;4308;51.294;6.590;2023-12-20T15:21:07;8.20;99.90
8541;DHT22;4308;51.294;6.590;2023-12-20T15:23:34;8.20;99.90
8541;DHT22;4308;51.294;6.590;2023-12-20T15:26:02;8.20;99.90
8541;DHT22;4308;51.294;6.590;2023-12-20T15:28:30;8.20;99.90
8541;DHT22;4308;51.294;6.590;2023-12-20T15:30:57;8.20;99.90
8541;DHT22;4308;51.294;6.590;2023-12-20T15:33:25;8.10;99.90
8541;DHT22;4308;51.294;6.590;2023-12-20T15:35:52;8.20;99.90
8541;DHT22;4308;51.294;6.590;2023-12-20T15:38:19;8.10;99.90
8541;DHT22;4308;51.294;6.590;2023-12-20T15:40:47;8.10;99.90
8541;DHT22;4308;51.294;6.590;2023-12-20T15:43:15;8.00;99.90
8541;DHT22;4308;51.294;6.590;2023-12-20T15:45:42;8.00;99.90
8541;DHT22;4308;51.294;6.590;2023-12-20T15:48:10;8.00;99.90
8541;DHT22;4308;51.294;6.590;2023-12-20T15:50:44;8.00;99.90
8541;DHT22;4308;51.294;6.590;2023-12-20T15:53:12;8.00;99.90
8541;DHT22;4308;51.294;6.590;2023-12-20T15:55:39;7.90;99.90
8541;DHT22;4308;51.294;6.590;2023-12-20T15:58:06;7.90;99.90
8541;DHT22;4308;51.294;6.590;2023-12-20T16:00:34;8.00;99.90
8541;DHT22;4308;51.294;6.590;2023-12-20T16:03:01;7.90;99.90
8541;DHT22;4308;51.294;6.590;2023-12-20T16:05:28;8.00;99.90
8541;DHT22;4308;51.294;6.590;2023-12-20T16:07:56;8.20;99.90
8541;DHT22;4308;51.294;6.590;2023-12-20T16:10:23;8.00;99.90
8541;DHT22;4308;51.294;6.590;2023-12-20T16:12:51;8.00;99.90
8541;DHT22;4308;51.294;6.590;2023-12-20T16:15:18;8.10;99.90
8541;DHT22;4308;51.294;6.590;2023-12-20T16:17:45;8.00;99.90
8541;DHT22;4308;51.294;6.590;2023-12-20T16:20:13;8.20;99.90
8541;DHT22;4308;51.294;6.590;2023-12-20T16:22:41;8.10;99.90
8541;DHT22;4308;51.294;6.590;2023-12-20T16:25:08;8.10;99.90
8541;DHT22;4308;51.294;6.590;2023-12-20T16:27:37;8.10;99.90
8541;DHT22;4308;51.294;6.590;2023-12-20T16:30:05;8.10;99.90
8541;DHT22;4308;51.294;6.590;2023-12-20T16:32:33;8.10;99.90
8541;DHT22;4308;51.294;6.590;2023-12-20T16:35:01;8.20;99.90
8541;DHT22;4308;51.294;6.590;2023-12-20T16:37:29;8.10;99.90
8541;DHT22;4308;51.294;6.590;2023-12-20T16:39:56;8.10;99.90
8541;DHT22;4308;51.294;6.590;2023-12-20T16:42:24;8.10;99.90
8541;DHT22;4308;51.294;6.590;2023-12-20T16:44:51;8.10;99.90
8541;DHT22;4308;51.294;6.590;2023-12-20T16:47:19;8.20;99.90
8541;DHT22;4308;51.294;6.590;2023-12-20T16:49:47;8.20;99.90
8541;DHT22;4308;51.294;6.590;2023-12-20T16:52:14;8.10;99.90
8541;DHT22;4308;51.294;6.590;2023-12-20T16:54:42;8.20;99.90
8541;DHT22;4308;51.294;6.590;2023-12-20T16:57:09;8.20;99.90
8541;DHT22;4308;51.294;6.590;2023-12-20T16:59:37;8.20;99.90
8541;DHT22;4308;51.294;6.590;2023-12-20T17:02:08;8.20;99.90
8541;DHT22;4308;51.294;6.590;2023-12-20T17:04:35;8.20;99.90
8541;DHT22;4308;51.294;6.590;2023-12-20T17:07:03;8.10;99.90
8541;DHT22;4308;51.294;6.590;2023-12-20T17:09:31;8.00;99.90
8541;DHT22;4308;51.294;6.590;2023-12-20T17:11:58;8.00;99.90
8541;DHT22;4308;51.294;6.590;2023-12-20T17:14:25;8.00;99.90
8541;DHT22;4308;51.294;6.590;2023-12-20T17:16:53;8.00;99.90
8541;DHT22;4308;51.294;6.590;2023-12-20T17:19:20;7.90;99.90
8541;DHT22;4308;51.294;6.590;2023-12-20T17:21:47;7.90;99.90
8541;DHT22;4308;51.294;6.590;2023-12-20T17:24:15;7.90;99.90
8541;DHT22;4308;51.294;6.590;2023-12-20T17:26:42;7.90;99.90
8541;DHT22;4308;51.294;6.590;2023-12-20T17:29:10;8.00;99.90
8541;DHT22;4308;51.294;6.590;2023-12-20T17:31:37;8.00;99.90
8541;DHT22;4308;51.294;6.590;2023-12-20T17:34:04;8.00;99.90
8541;DHT22;4308;51.294;6.590;2023-12-20T17:36:32;8.10;99.90
8541;DHT22;4308;51.294;6.590;2023-12-20T17:38:59;8.10;99.90
8541;DHT22;4308;51.294;6.590;2023-12-20T17:41:26;8.10;99.90
8541;DHT22;4308;51.294;6.590;2023-12-20T17:43:54;8.20;99.90
8541;DHT22;4308;51.294;6.590;2023-12-20T17:46:21;8.10;99.90
8541;DHT22;4308;51.294;6.590;2023-12-20T17:48:48;8.10;99.90
8541;DHT22;4308;51.294;6.590;2023-12-20T17:51:16;8.20;99.90
8541;DHT22;4308;51.294;6.590;2023-12-20T17:53:43;8.20;99.90
8541;DHT22;4308;51.294;6.590;2023-12-20T17:56:11;8.30;99.90
8541;DHT22;4308;51.294;6.590;2023-12-20T17:58:38;8.20;99.90
8541;DHT22;4308;51.294;6.590;2023-12-20T18:01:06;8.30;99.90
8541;DHT22;4308;51.294;6.590;2023-12-20T18:03:35;8.30;99.90